Lanesville, Illinois
Current Conditions -  °F | °C
As of 5:52 PM on Thursday 27 Nov 2014 (Local Time) from KSPI Reporting Station
Clear Clear  
Wind Chill:   Ceiling: Unl
Heat Index: 17°   Visibility: 10mi
Dew Point:   Wind: 7mph
Humidity: 68%   Direction: 310°NW
Pressure: 30.48"   Gusts: NA
Location:  39.8448°N, 89.3474°W
Report Text: KSPI 272352Z 31006KT 10SM CLR M08/M13 A3048 RMK AO2 SLP330 60000 T10831133 11028 21083 51010
Loading
Personal Weather Stations






























Interactive Weather Map New forecast layout! Learn more

10-Day Weather Forecast

Advertisements
Track Severe Weather on mobile